createdAt,value
2022-09-01T00:00:30.683Z,14.80
2022-09-01T00:02:59.110Z,14.90
2022-09-01T00:05:28.594Z,15.00
2022-09-01T00:07:56.692Z,15.00
2022-09-01T00:10:24.964Z,15.10
2022-09-01T00:12:53.344Z,15.20
2022-09-01T00:15:21.425Z,15.20
2022-09-01T00:17:49.741Z,15.30
2022-09-01T00:20:20.513Z,15.30
2022-09-01T00:22:50.759Z,15.30
2022-09-01T00:25:20.684Z,15.30
2022-09-01T00:27:49.737Z,15.30
2022-09-01T00:30:18.324Z,15.40
2022-09-01T00:32:46.891Z,15.50
2022-09-01T00:35:16.253Z,15.40
2022-09-01T00:37:44.818Z,15.40
2022-09-01T00:40:17.370Z,15.40
2022-09-01T00:42:46.172Z,15.30
2022-09-01T00:45:14.456Z,15.30
2022-09-01T00:47:43.742Z,15.20
2022-09-01T00:50:15.940Z,15.20
2022-09-01T00:52:51.853Z,15.10
2022-09-01T00:55:26.904Z,15.00
2022-09-01T00:57:55.123Z,15.00
2022-09-01T01:00:27.601Z,15.00
2022-09-01T01:02:56.851Z,14.90
2022-09-01T01:05:33.064Z,14.90
2022-09-01T01:08:04.287Z,14.80
2022-09-01T01:10:38.956Z,14.70
2022-09-01T01:13:15.551Z,14.60
2022-09-01T01:15:44.874Z,14.70
2022-09-01T01:18:13.805Z,14.60
2022-09-01T01:21:00.945Z,14.60
2022-09-01T01:23:39.012Z,14.60
2022-09-01T01:26:11.431Z,14.50
2022-09-01T01:28:44.152Z,14.50
2022-09-01T01:31:16.365Z,14.40
2022-09-01T01:33:47.734Z,14.40
2022-09-01T01:36:21.548Z,14.30
2022-09-01T01:38:51.024Z,14.30
2022-09-01T01:41:22.002Z,14.20
2022-09-01T01:43:51.025Z,14.20
2022-09-01T01:46:20.718Z,14.20
2022-09-01T01:48:52.428Z,14.20
2022-09-01T01:51:24.987Z,14.20
2022-09-01T01:53:53.596Z,14.10
2022-09-01T01:56:25.661Z,14.10
2022-09-01T01:58:54.689Z,14.00
2022-09-01T02:01:24.387Z,14.00
2022-09-01T02:03:54.781Z,14.00
2022-09-01T02:06:25.590Z,14.00
2022-09-01T02:08:56.627Z,14.10
2022-09-01T02:11:26.635Z,14.00
2022-09-01T02:13:56.316Z,13.90
2022-09-01T02:16:26.112Z,13.90
2022-09-01T02:18:54.460Z,13.90
2022-09-01T02:21:27.121Z,13.80
2022-09-01T02:24:00.345Z,13.80
2022-09-01T02:26:33.320Z,13.70
2022-09-01T02:29:05.137Z,13.70
2022-09-01T02:31:35.494Z,13.70
2022-09-01T02:34:04.574Z,13.70
2022-09-01T02:36:35.101Z,13.70
2022-09-01T02:39:03.206Z,13.70
2022-09-01T02:41:34.614Z,13.70
2022-09-01T02:44:04.124Z,13.60
2022-09-01T02:46:32.299Z,13.60
2022-09-01T02:49:01.575Z,13.50
2022-09-01T02:51:31.758Z,13.50
2022-09-01T02:54:00.595Z,13.50
2022-09-01T02:56:28.849Z,13.50
2022-09-01T02:59:01.715Z,13.40
2022-09-01T03:01:34.021Z,13.40
2022-09-01T03:04:05.635Z,13.40
2022-09-01T03:06:36.440Z,13.30
2022-09-01T03:09:08.585Z,13.30
2022-09-01T03:11:42.961Z,13.30
2022-09-01T03:14:13.201Z,13.20
2022-09-01T03:16:42.293Z,13.20
2022-09-01T03:19:12.097Z,13.10
2022-09-01T03:21:43.317Z,13.10
2022-09-01T03:24:15.154Z,13.10
2022-09-01T03:26:45.493Z,13.00
2022-09-01T03:29:20.078Z,13.00
2022-09-01T03:31:48.530Z,13.00
2022-09-01T03:34:20.721Z,13.00
2022-09-01T03:36:51.095Z,13.00
2022-09-01T03:39:20.047Z,13.00
2022-09-01T03:41:48.419Z,12.90
2022-09-01T03:44:18.056Z,12.90
2022-09-01T03:46:46.697Z,12.90
2022-09-01T03:49:15.511Z,12.90
2022-09-01T03:51:45.011Z,12.90
2022-09-01T03:54:14.296Z,12.80
2022-09-01T03:56:43.799Z,12.80
2022-09-01T03:59:16.761Z,12.80
2022-09-01T04:01:47.577Z,12.80
2022-09-01T04:04:16.617Z,12.80
2022-09-01T04:06:46.760Z,12.80
2022-09-01T04:09:15.429Z,12.80
2022-09-01T04:11:46.257Z,12.80
2022-09-01T04:14:15.275Z,12.80
2022-09-01T04:17:03.904Z,12.80
2022-09-01T04:19:38.444Z,12.70
2022-09-01T04:22:13.430Z,12.70
2022-09-01T04:24:45.960Z,12.70
2022-09-01T04:27:18.038Z,12.70
2022-09-01T04:29:46.775Z,12.70
2022-09-01T04:32:16.961Z,12.70
2022-09-01T04:34:45.047Z,12.70
2022-09-01T04:37:18.182Z,12.80
2022-09-01T04:39:55.747Z,12.80
2022-09-01T04:42:29.063Z,12.80
2022-09-01T04:44:59.908Z,12.90
2022-09-01T04:47:36.298Z,12.90
2022-09-01T04:50:14.175Z,12.90
2022-09-01T04:52:45.771Z,12.90
2022-09-01T04:55:18.403Z,13.00
2022-09-01T04:57:49.528Z,12.90
2022-09-01T05:00:24.374Z,13.00
2022-09-01T05:03:03.387Z,13.00
2022-09-01T05:05:42.462Z,13.10
2022-09-01T05:08:14.494Z,13.10
2022-09-01T05:10:56.556Z,13.10
2022-09-01T05:13:27.316Z,13.20
2022-09-01T05:16:04.082Z,13.30
2022-09-01T05:18:34.141Z,13.40
2022-09-01T05:21:11.125Z,13.40
2022-09-01T05:23:40.641Z,13.40
2022-09-01T05:26:16.913Z,13.50
2022-09-01T05:28:45.668Z,13.50
2022-09-01T05:31:14.005Z,13.50
2022-09-01T05:33:46.016Z,13.60
2022-09-01T05:36:17.880Z,13.60
2022-09-01T05:38:48.046Z,13.70
2022-09-01T05:41:20.921Z,13.70
2022-09-01T05:43:57.782Z,13.80
2022-09-01T05:46:30.016Z,13.80
2022-09-01T05:48:59.735Z,14.00
2022-09-01T05:51:44.372Z,14.10
2022-09-01T05:54:15.172Z,14.20
2022-09-01T05:56:44.888Z,14.50
2022-09-01T05:59:23.071Z,14.40
2022-09-01T06:01:53.186Z,14.60
2022-09-01T06:04:25.379Z,14.70
2022-09-01T06:07:05.776Z,15.00
2022-09-01T06:09:39.394Z,15.10
2022-09-01T06:12:09.133Z,15.40
2022-09-01T06:14:37.398Z,15.50
2022-09-01T06:17:06.662Z,15.70
2022-09-01T06:19:37.383Z,15.80
2022-09-01T06:22:07.988Z,16.00
2022-09-01T06:24:36.824Z,16.00
2022-09-01T06:27:09.746Z,16.10
2022-09-01T06:29:39.712Z,16.30
2022-09-01T06:32:10.466Z,16.40
2022-09-01T06:34:44.535Z,16.50
2022-09-01T06:37:13.248Z,16.60
2022-09-01T06:39:41.570Z,16.80
2022-09-01T06:42:13.748Z,17.00
2022-09-01T06:44:41.867Z,17.10
2022-09-01T06:47:10.894Z,17.30
2022-09-01T06:49:41.087Z,17.60
2022-09-01T06:52:09.565Z,17.80
2022-09-01T06:54:39.568Z,18.00
2022-09-01T06:59:56.176Z,18.30
2022-09-01T07:02:27.189Z,18.30
2022-09-01T07:04:57.219Z,18.40
2022-09-01T07:10:21.212Z,18.50
2022-09-01T07:13:06.623Z,18.70
2022-09-01T07:18:27.686Z,18.70
2022-09-01T07:24:07.835Z,18.60
2022-09-01T07:26:36.167Z,18.40
2022-09-01T07:29:07.371Z,18.20
2022-09-01T07:34:46.272Z,18.00
2022-09-01T07:38:47.344Z,17.70
2022-09-01T07:45:31.388Z,17.40
2022-09-01T07:48:06.523Z,17.20
2022-09-01T07:51:34.597Z,17.10
2022-09-01T07:53:31.431Z,17.10
2022-09-01T07:56:02.437Z,17.20
2022-09-01T07:58:31.424Z,17.30
2022-09-01T08:01:02.634Z,17.20
2022-09-01T08:03:32.014Z,17.40
2022-09-01T08:06:06.976Z,17.50
2022-09-01T08:08:40.559Z,17.70
2022-09-01T08:11:09.394Z,17.70
2022-09-01T08:13:41.910Z,17.60
2022-09-01T08:16:19.285Z,17.80
2022-09-01T08:18:49.981Z,17.80
2022-09-01T08:21:22.132Z,17.90
2022-09-01T08:23:53.733Z,18.00
2022-09-01T08:26:25.076Z,18.10
2022-09-01T08:28:55.488Z,18.20
2022-09-01T08:31:30.526Z,18.40
2022-09-01T08:34:00.014Z,18.40
2022-09-01T08:36:28.106Z,18.20
2022-09-01T08:38:57.567Z,18.10
2022-09-01T08:41:46.415Z,18.10
2022-09-01T08:44:32.592Z,18.00
2022-09-01T08:47:07.031Z,17.90
2022-09-01T08:49:43.306Z,17.90
2022-09-01T08:52:25.510Z,17.90
2022-09-01T08:55:02.626Z,18.00
2022-09-01T08:57:36.151Z,18.00
2022-09-01T09:00:08.312Z,17.90
2022-09-01T09:02:52.282Z,17.80
2022-09-01T09:05:34.034Z,17.80
2022-09-01T09:08:56.729Z,17.70
2022-09-01T09:12:00.018Z,17.90
2022-09-01T09:14:51.796Z,18.10
2022-09-01T09:17:28.274Z,18.30
2022-09-01T09:19:56.420Z,18.50
2022-09-01T09:22:24.528Z,18.80
2022-09-01T09:25:00.259Z,19.00
2022-09-01T09:27:33.918Z,19.10
2022-09-01T09:30:09.324Z,19.30
2022-09-01T09:33:24.969Z,19.40
2022-09-01T09:35:42.981Z,19.50
2022-09-01T09:38:28.830Z,19.70
2022-09-01T09:41:17.145Z,19.80
2022-09-01T09:44:00.106Z,19.80
2022-09-01T09:46:37.652Z,19.90
2022-09-01T09:49:34.242Z,20.00
2022-09-01T09:52:18.329Z,20.10
2022-09-01T09:55:06.852Z,20.20
2022-09-01T09:57:42.192Z,20.30
2022-09-01T10:00:24.519Z,20.30
2022-09-01T10:03:07.888Z,20.40
2022-09-01T10:05:43.201Z,20.40
2022-09-01T10:08:16.514Z,20.40
2022-09-01T10:10:58.193Z,20.40
2022-09-01T10:13:31.301Z,20.60
2022-09-01T10:16:09.065Z,20.60
2022-09-01T10:18:44.839Z,20.60
2022-09-01T10:21:18.452Z,20.70
2022-09-01T10:23:46.593Z,20.60
2022-09-01T10:26:21.519Z,20.70
2022-09-01T10:28:59.946Z,20.80
2022-09-01T10:31:32.406Z,20.90
2022-09-01T10:34:05.900Z,20.90
2022-09-01T10:36:37.829Z,21.00
2022-09-01T10:39:12.294Z,21.20
2022-09-01T10:42:00.574Z,21.30
2022-09-01T10:44:33.981Z,21.50
2022-09-01T10:47:14.497Z,21.70
2022-09-01T10:50:07.461Z,21.80
2022-09-01T10:53:04.703Z,22.00
2022-09-01T10:55:48.306Z,22.20
2022-09-01T11:02:24.975Z,22.50
2022-09-01T11:05:17.996Z,22.60
2022-09-01T11:08:15.832Z,22.50
2022-09-01T11:11:00.290Z,22.50
2022-09-01T11:13:49.564Z,22.70
2022-09-01T11:16:53.018Z,23.00
2022-09-01T11:19:44.458Z,23.00
2022-09-01T11:22:45.139Z,22.90
2022-09-01T11:25:43.798Z,22.60
2022-09-01T11:28:41.829Z,22.60
2022-09-01T11:31:30.882Z,22.50
2022-09-01T11:34:23.344Z,22.60
2022-09-01T11:37:01.308Z,22.60
2022-09-01T11:39:42.256Z,22.60
2022-09-01T11:42:22.524Z,22.70
2022-09-01T11:44:58.704Z,22.60
2022-09-01T11:47:33.205Z,22.50
2022-09-01T11:50:05.924Z,22.40
2022-09-01T11:52:41.388Z,22.30
2022-09-01T11:55:11.757Z,22.30
2022-09-01T11:57:42.051Z,22.40
2022-09-01T12:00:15.089Z,22.40
2022-09-01T12:02:49.085Z,22.30
2022-09-01T12:05:32.043Z,22.40
2022-09-01T12:08:04.823Z,22.30
2022-09-01T12:10:38.332Z,22.30
2022-09-01T12:13:10.052Z,22.20
2022-09-01T12:16:00.626Z,22.20
2022-09-01T12:18:35.133Z,22.30
2022-09-01T12:21:07.878Z,22.30
2022-09-01T12:23:43.009Z,22.30
2022-09-01T12:26:15.406Z,22.30
2022-09-01T12:28:44.468Z,22.30
2022-09-01T12:31:17.989Z,22.40
2022-09-01T12:33:47.725Z,22.30
2022-09-01T12:36:26.467Z,22.40
2022-09-01T12:38:58.267Z,22.40
2022-09-01T12:41:35.447Z,22.40
2022-09-01T12:44:30.499Z,22.50
2022-09-01T12:47:02.724Z,22.40
2022-09-01T12:49:47.959Z,22.50
2022-09-01T12:52:28.550Z,22.40
2022-09-01T12:58:07.974Z,22.20
2022-09-01T13:00:39.521Z,22.00
2022-09-01T13:03:14.488Z,22.00
2022-09-01T13:05:44.376Z,21.80
2022-09-01T13:08:18.306Z,21.70
2022-09-01T13:10:52.997Z,21.70
2022-09-01T13:13:24.052Z,21.70
2022-09-01T13:15:56.742Z,21.90
2022-09-01T13:18:27.548Z,22.10
2022-09-01T13:20:57.065Z,22.30
2022-09-01T13:23:25.856Z,22.60
2022-09-01T13:25:55.211Z,22.80
2022-09-01T13:36:47.243Z,23.50
2022-09-01T13:39:17.159Z,23.50
2022-09-01T13:41:48.290Z,23.60
2022-09-01T13:44:17.373Z,23.60
2022-09-01T13:47:28.560Z,23.50
2022-09-01T13:49:44.045Z,23.40
2022-09-01T13:52:22.590Z,23.40
2022-09-01T13:54:50.763Z,23.20
2022-09-01T13:57:20.114Z,23.20
2022-09-01T13:59:48.150Z,23.00
2022-09-01T14:02:16.249Z,22.90
2022-09-01T14:04:44.670Z,22.90
2022-09-01T14:07:12.860Z,22.80
2022-09-01T14:09:40.884Z,22.70
2022-09-01T14:12:09.143Z,22.80
2022-09-01T14:17:26.538Z,23.00
2022-09-01T14:19:55.319Z,23.10
2022-09-01T14:22:23.412Z,23.20
2022-09-01T14:24:52.219Z,23.20
2022-09-01T14:27:20.363Z,23.30
2022-09-01T14:29:54.901Z,23.40
2022-09-01T14:32:27.086Z,23.40
2022-09-01T14:34:55.410Z,23.40
2022-09-01T14:37:24.468Z,23.30
2022-09-01T14:39:53.596Z,23.20
2022-09-01T14:42:23.938Z,23.10
2022-09-01T14:44:53.725Z,23.00
2022-09-01T14:47:24.711Z,22.90
2022-09-01T14:49:53.325Z,22.80
2022-09-01T14:52:22.285Z,22.70
2022-09-01T14:54:50.899Z,22.60
2022-09-01T14:57:36.919Z,22.60
2022-09-01T15:00:13.013Z,22.60
2022-09-01T15:02:43.994Z,22.60
2022-09-01T15:05:13.795Z,22.50
2022-09-01T15:07:43.262Z,22.40
2022-09-01T15:10:24.975Z,22.30
2022-09-01T15:12:55.768Z,22.30
2022-09-01T15:15:27.180Z,22.40
2022-09-01T15:17:56.110Z,22.50
2022-09-01T15:20:42.962Z,22.40
2022-09-01T15:23:11.554Z,22.50
2022-09-01T15:25:40.067Z,22.60
2022-09-01T15:28:08.879Z,22.60
2022-09-01T15:30:40.581Z,22.60
2022-09-01T15:33:14.703Z,22.60
2022-09-01T15:35:44.347Z,22.60
2022-09-01T15:38:17.165Z,22.60
2022-09-01T15:40:57.696Z,22.50
2022-09-01T15:43:28.331Z,22.50
2022-09-01T15:45:59.106Z,22.40
2022-09-01T15:48:29.365Z,22.40
2022-09-01T15:51:29.371Z,22.30
2022-09-01T15:54:02.069Z,22.10
2022-09-01T15:56:31.202Z,22.00
2022-09-01T15:59:02.027Z,22.00
2022-09-01T16:01:36.177Z,21.90
2022-09-01T16:04:07.882Z,21.90
2022-09-01T16:06:36.803Z,21.80
2022-09-01T16:09:06.833Z,21.70
2022-09-01T16:11:36.669Z,21.70
2022-09-01T16:14:06.207Z,21.60
2022-09-01T16:16:54.442Z,21.60
2022-09-01T16:19:34.424Z,21.50
2022-09-01T16:22:14.179Z,21.40
2022-09-01T16:24:45.687Z,21.30
2022-09-01T16:27:18.350Z,21.30
2022-09-01T16:29:51.685Z,21.20
2022-09-01T16:32:23.543Z,21.10
2022-09-01T16:34:53.347Z,21.10
2022-09-01T16:37:47.146Z,21.00
2022-09-01T16:40:34.762Z,20.90
2022-09-01T16:43:13.365Z,20.80
2022-09-01T16:45:53.953Z,20.80
2022-09-01T16:48:34.227Z,20.80
2022-09-01T16:51:15.056Z,20.70
2022-09-01T16:54:02.666Z,20.60
2022-09-01T16:56:37.318Z,20.50
2022-09-01T16:59:25.165Z,20.40
2022-09-01T17:02:07.118Z,20.30
2022-09-01T17:04:46.770Z,20.20
2022-09-01T17:07:21.113Z,20.10
2022-09-01T17:10:04.813Z,19.90
2022-09-01T17:12:42.883Z,19.90
2022-09-01T17:15:16.055Z,19.90
2022-09-01T17:17:55.839Z,19.80
2022-09-01T17:20:30.702Z,19.60
2022-09-01T17:23:08.622Z,19.60
2022-09-01T17:25:45.012Z,19.50
2022-09-01T17:28:20.814Z,19.50
2022-09-01T17:31:00.347Z,19.50
2022-09-01T17:33:44.831Z,19.40
2022-09-01T17:36:27.095Z,19.30
2022-09-01T17:39:03.700Z,19.20
2022-09-01T17:41:41.616Z,19.10
2022-09-01T17:44:21.457Z,19.10
2022-09-01T17:47:01.778Z,18.90
2022-09-01T17:49:39.676Z,18.90
2022-09-01T17:52:19.018Z,18.90
2022-09-01T17:54:59.964Z,19.00
2022-09-01T17:57:35.965Z,19.00
2022-09-01T18:00:09.245Z,18.90
2022-09-01T18:03:14.813Z,18.90
2022-09-01T18:05:46.516Z,18.80
2022-09-01T18:08:38.237Z,18.70
2022-09-01T18:11:14.170Z,18.70
2022-09-01T18:13:54.283Z,18.70
2022-09-01T18:16:29.494Z,18.60
2022-09-01T18:19:04.637Z,18.50
2022-09-01T18:21:38.181Z,18.30
2022-09-01T18:24:21.496Z,18.30
2022-09-01T18:26:52.917Z,18.20
2022-09-01T18:29:25.015Z,18.10
2022-09-01T18:32:13.083Z,18.00
2022-09-01T18:35:13.331Z,18.00
2022-09-01T18:38:01.547Z,17.90
2022-09-01T18:40:43.792Z,17.90
2022-09-01T18:43:23.690Z,17.80
2022-09-01T18:46:00.023Z,17.70
2022-09-01T18:48:50.685Z,17.60
2022-09-01T18:51:31.462Z,17.60
2022-09-01T18:54:10.369Z,17.50
2022-09-01T18:56:49.521Z,17.40
2022-09-01T19:00:18.930Z,17.40
2022-09-01T19:03:21.359Z,17.30
2022-09-01T19:06:12.624Z,17.30
2022-09-01T19:09:01.555Z,17.30
2022-09-01T19:11:49.394Z,17.30
2022-09-01T19:14:30.890Z,17.30
2022-09-01T19:17:22.280Z,17.30
2022-09-01T19:19:57.920Z,17.30
2022-09-01T19:22:40.345Z,17.20
2022-09-01T19:25:30.092Z,17.10
2022-09-01T19:28:08.163Z,17.10
2022-09-01T19:30:42.539Z,17.00
2022-09-01T19:33:17.427Z,17.00
2022-09-01T19:35:49.330Z,16.90
2022-09-01T19:38:27.562Z,16.90
2022-09-01T19:41:05.299Z,16.90
2022-09-01T19:43:40.279Z,16.80
2022-09-01T19:46:22.371Z,16.70
2022-09-01T19:49:00.183Z,16.70
2022-09-01T19:51:34.730Z,16.70
2022-09-01T19:54:10.797Z,16.60
2022-09-01T19:56:49.783Z,16.60
2022-09-01T19:59:28.152Z,16.50
2022-09-01T20:02:00.679Z,16.50
2022-09-01T20:04:42.888Z,16.50
2022-09-01T20:07:25.096Z,16.50
2022-09-01T20:10:13.603Z,16.50
2022-09-01T20:12:52.837Z,16.40
2022-09-01T20:15:33.495Z,16.40
2022-09-01T20:18:08.952Z,16.40
2022-09-01T20:20:46.970Z,16.40
2022-09-01T20:23:27.877Z,16.40
2022-09-01T20:26:04.472Z,16.30
2022-09-01T20:28:45.630Z,16.20
2022-09-01T20:31:28.219Z,16.20
2022-09-01T20:34:05.395Z,16.10
2022-09-01T20:36:42.865Z,16.10
2022-09-01T20:39:51.700Z,16.10
2022-09-01T20:42:32.176Z,16.00
2022-09-01T20:45:06.502Z,16.00
2022-09-01T20:47:36.004Z,15.90
2022-09-01T20:50:12.835Z,15.90
2022-09-01T20:52:59.741Z,15.90
2022-09-01T20:55:38.554Z,15.90
2022-09-01T20:58:16.738Z,15.80
2022-09-01T21:01:03.195Z,15.80
2022-09-01T21:03:47.239Z,15.70
2022-09-01T21:06:28.925Z,15.70
2022-09-01T21:09:10.279Z,15.80
2022-09-01T21:11:47.602Z,15.60
2022-09-01T21:14:43.795Z,15.60
2022-09-01T21:17:24.441Z,15.60
2022-09-01T21:20:09.393Z,15.50
2022-09-01T21:22:37.530Z,15.50
2022-09-01T21:25:06.858Z,15.50
2022-09-01T21:27:44.555Z,15.50
2022-09-01T21:30:15.997Z,15.50
2022-09-01T21:32:44.851Z,15.40
2022-09-01T21:35:18.246Z,15.40
2022-09-01T21:37:46.466Z,15.40
2022-09-01T21:40:16.462Z,15.40
2022-09-01T21:42:52.455Z,15.40
2022-09-01T21:45:22.307Z,15.40
2022-09-01T21:47:52.512Z,15.30
2022-09-01T21:50:25.176Z,15.30
2022-09-01T21:52:53.709Z,15.30
2022-09-01T21:55:24.904Z,15.20
2022-09-01T21:57:53.307Z,15.20
2022-09-01T22:00:25.379Z,15.10
2022-09-01T22:02:54.235Z,15.10
2022-09-01T22:05:26.022Z,15.10
2022-09-01T22:07:56.043Z,15.10
2022-09-01T22:10:29.938Z,15.10
2022-09-01T22:13:03.510Z,15.00
2022-09-01T22:15:32.642Z,15.00
2022-09-01T22:18:00.882Z,15.00
2022-09-01T22:20:31.973Z,15.00
2022-09-01T22:23:02.021Z,15.00
2022-09-01T22:25:32.694Z,15.00
2022-09-01T22:28:03.230Z,14.90
2022-09-01T22:30:31.905Z,14.90
2022-09-01T22:33:01.182Z,14.90
2022-09-01T22:35:30.844Z,14.80
2022-09-01T22:37:58.922Z,14.80
2022-09-01T22:40:27.084Z,14.90
2022-09-01T22:42:55.268Z,14.90
2022-09-01T22:45:23.457Z,14.80
2022-09-01T22:47:51.552Z,14.70
2022-09-01T22:50:19.849Z,14.70
2022-09-01T22:52:49.294Z,14.70
2022-09-01T22:55:17.881Z,14.70
2022-09-01T22:57:45.987Z,14.60
2022-09-01T23:00:15.416Z,14.60
2022-09-01T23:02:44.815Z,14.70
2022-09-01T23:05:13.165Z,14.60
2022-09-01T23:07:41.327Z,14.50
2022-09-01T23:10:12.001Z,14.60
2022-09-01T23:12:40.070Z,14.60
2022-09-01T23:15:10.448Z,14.50
2022-09-01T23:17:39.678Z,14.50
2022-09-01T23:20:13.020Z,14.50
2022-09-01T23:22:42.652Z,14.40
2022-09-01T23:25:16.319Z,14.40
2022-09-01T23:27:44.787Z,14.30
2022-09-01T23:30:16.150Z,14.30
2022-09-01T23:32:44.817Z,14.30
2022-09-01T23:35:13.985Z,14.30
2022-09-01T23:37:44.730Z,14.30
2022-09-01T23:40:14.528Z,14.20
2022-09-01T23:42:42.817Z,14.20
2022-09-01T23:45:12.585Z,14.20
2022-09-01T23:47:41.025Z,14.30
2022-09-01T23:50:10.625Z,14.20
2022-09-01T23:52:39.426Z,14.20
2022-09-01T23:55:09.443Z,14.10
2022-09-01T23:57:39.462Z,14.00
